sensor_id;sensor_type;location;lat;lon;timestamp;temperature;humidity
33881;DHT22;20172;47.530;10.256;2022-08-25T00:00:45;14.80;99.90
33881;DHT22;20172;47.530;10.256;2022-08-25T00:03:11;14.80;99.90
33881;DHT22;20172;47.530;10.256;2022-08-25T00:05:37;14.80;99.90
33881;DHT22;20172;47.530;10.256;2022-08-25T00:08:03;14.80;99.90
33881;DHT22;20172;47.530;10.256;2022-08-25T00:10:31;15.00;99.90
33881;DHT22;20172;47.530;10.256;2022-08-25T00:12:57;15.10;99.90
33881;DHT22;20172;47.530;10.256;2022-08-25T00:15:22;15.20;99.90
33881;DHT22;20172;47.530;10.256;2022-08-25T00:17:48;15.20;99.90
33881;DHT22;20172;47.530;10.256;2022-08-25T00:20:13;15.20;99.90
33881;DHT22;20172;47.530;10.256;2022-08-25T00:22:39;15.00;99.90
33881;DHT22;20172;47.530;10.256;2022-08-25T00:25:05;14.90;99.90
33881;DHT22;20172;47.530;10.256;2022-08-25T00:27:31;15.00;99.90
33881;DHT22;20172;47.530;10.256;2022-08-25T00:29:57;14.90;99.90
33881;DHT22;20172;47.530;10.256;2022-08-25T00:32:22;14.70;99.90
33881;DHT22;20172;47.530;10.256;2022-08-25T00:34:49;14.90;99.90
33881;DHT22;20172;47.530;10.256;2022-08-25T00:37:18;14.80;99.90
33881;DHT22;20172;47.530;10.256;2022-08-25T00:39:44;14.70;99.90
33881;DHT22;20172;47.530;10.256;2022-08-25T00:42:09;14.70;99.90
33881;DHT22;20172;47.530;10.256;2022-08-25T00:44:35;14.70;99.90
33881;DHT22;20172;47.530;10.256;2022-08-25T00:47:01;14.40;99.90
33881;DHT22;20172;47.530;10.256;2022-08-25T00:49:29;14.30;99.90
33881;DHT22;20172;47.530;10.256;2022-08-25T00:54:23;14.40;99.90
33881;DHT22;20172;47.530;10.256;2022-08-25T00:56:49;14.40;99.90
33881;DHT22;20172;47.530;10.256;2022-08-25T00:59:18;14.50;99.90
33881;DHT22;20172;47.530;10.256;2022-08-25T01:01:44;14.50;99.90
33881;DHT22;20172;47.530;10.256;2022-08-25T01:04:10;14.30;99.90
33881;DHT22;20172;47.530;10.256;2022-08-25T01:06:36;14.00;99.90
33881;DHT22;20172;47.530;10.256;2022-08-25T01:09:03;13.90;99.90
33881;DHT22;20172;47.530;10.256;2022-08-25T01:11:29;13.80;99.90
33881;DHT22;20172;47.530;10.256;2022-08-25T01:13:55;13.80;99.90
33881;DHT22;20172;47.530;10.256;2022-08-25T01:16:21;13.70;99.90
33881;DHT22;20172;47.530;10.256;2022-08-25T01:18:51;13.70;99.90
33881;DHT22;20172;47.530;10.256;2022-08-25T01:21:18;13.70;99.90
33881;DHT22;20172;47.530;10.256;2022-08-25T01:23:44;13.70;99.90
33881;DHT22;20172;47.530;10.256;2022-08-25T01:26:12;13.70;99.90
33881;DHT22;20172;47.530;10.256;2022-08-25T01:28:39;13.60;99.90
33881;DHT22;20172;47.530;10.256;2022-08-25T01:31:26;13.50;99.90
33881;DHT22;20172;47.530;10.256;2022-08-25T01:33:52;13.50;99.90
33881;DHT22;20172;47.530;10.256;2022-08-25T01:36:18;13.50;99.90
33881;DHT22;20172;47.530;10.256;2022-08-25T01:38:44;13.50;99.90
33881;DHT22;20172;47.530;10.256;2022-08-25T01:41:09;13.50;99.90
33881;DHT22;20172;47.530;10.256;2022-08-25T01:43:36;13.60;99.90
33881;DHT22;20172;47.530;10.256;2022-08-25T01:46:02;13.70;99.90
33881;DHT22;20172;47.530;10.256;2022-08-25T01:48:27;13.70;99.90
33881;DHT22;20172;47.530;10.256;2022-08-25T01:50:53;13.60;99.90
33881;DHT22;20172;47.530;10.256;2022-08-25T01:53:22;13.60;99.90
33881;DHT22;20172;47.530;10.256;2022-08-25T01:55:50;13.50;99.90
33881;DHT22;20172;47.530;10.256;2022-08-25T01:58:26;13.50;99.90
33881;DHT22;20172;47.530;10.256;2022-08-25T02:00:52;13.60;99.90
33881;DHT22;20172;47.530;10.256;2022-08-25T02:03:20;13.60;99.90
33881;DHT22;20172;47.530;10.256;2022-08-25T02:05:45;13.70;99.90
33881;DHT22;20172;47.530;10.256;2022-08-25T02:08:11;13.70;99.90
33881;DHT22;20172;47.530;10.256;2022-08-25T02:10:37;13.70;99.90
33881;DHT22;20172;47.530;10.256;2022-08-25T02:13:04;13.80;99.90
33881;DHT22;20172;47.530;10.256;2022-08-25T02:15:30;13.70;99.90
33881;DHT22;20172;47.530;10.256;2022-08-25T02:17:58;13.40;99.90
33881;DHT22;20172;47.530;10.256;2022-08-25T02:20:24;13.40;99.90
33881;DHT22;20172;47.530;10.256;2022-08-25T02:22:50;13.50;99.90
33881;DHT22;20172;47.530;10.256;2022-08-25T02:25:17;13.50;99.90
33881;DHT22;20172;47.530;10.256;2022-08-25T02:27:43;13.60;99.90
33881;DHT22;20172;47.530;10.256;2022-08-25T02:30:08;13.50;99.90
33881;DHT22;20172;47.530;10.256;2022-08-25T02:32:34;13.50;99.90
33881;DHT22;20172;47.530;10.256;2022-08-25T02:35:00;13.60;99.90
33881;DHT22;20172;47.530;10.256;2022-08-25T02:37:25;13.80;99.90
33881;DHT22;20172;47.530;10.256;2022-08-25T02:39:51;13.70;99.90
33881;DHT22;20172;47.530;10.256;2022-08-25T02:42:16;13.70;99.90
33881;DHT22;20172;47.530;10.256;2022-08-25T02:44:42;13.70;99.90
33881;DHT22;20172;47.530;10.256;2022-08-25T02:47:07;13.80;99.90
33881;DHT22;20172;47.530;10.256;2022-08-25T02:49:33;13.80;99.90
33881;DHT22;20172;47.530;10.256;2022-08-25T02:51:59;13.90;99.90
33881;DHT22;20172;47.530;10.256;2022-08-25T02:54:25;13.80;99.90
33881;DHT22;20172;47.530;10.256;2022-08-25T02:56:51;13.90;99.90
33881;DHT22;20172;47.530;10.256;2022-08-25T02:59:17;13.80;99.90
33881;DHT22;20172;47.530;10.256;2022-08-25T03:01:43;13.60;99.90
33881;DHT22;20172;47.530;10.256;2022-08-25T03:04:09;13.40;99.90
33881;DHT22;20172;47.530;10.256;2022-08-25T03:06:34;13.20;99.90
33881;DHT22;20172;47.530;10.256;2022-08-25T03:09:00;13.30;99.90
33881;DHT22;20172;47.530;10.256;2022-08-25T03:11:26;13.30;99.90
33881;DHT22;20172;47.530;10.256;2022-08-25T03:13:51;13.40;99.90
33881;DHT22;20172;47.530;10.256;2022-08-25T03:16:18;13.50;99.90
33881;DHT22;20172;47.530;10.256;2022-08-25T03:18:44;13.50;99.90
33881;DHT22;20172;47.530;10.256;2022-08-25T03:21:12;13.40;99.90
33881;DHT22;20172;47.530;10.256;2022-08-25T03:23:38;13.30;99.90
33881;DHT22;20172;47.530;10.256;2022-08-25T03:26:07;13.30;99.90
33881;DHT22;20172;47.530;10.256;2022-08-25T03:28:51;13.40;99.90
33881;DHT22;20172;47.530;10.256;2022-08-25T03:31:20;13.50;99.90
33881;DHT22;20172;47.530;10.256;2022-08-25T03:33:45;13.50;99.90
33881;DHT22;20172;47.530;10.256;2022-08-25T03:36:11;13.60;99.90
33881;DHT22;20172;47.530;10.256;2022-08-25T03:38:37;13.60;99.90
33881;DHT22;20172;47.530;10.256;2022-08-25T03:41:16;13.40;99.90
33881;DHT22;20172;47.530;10.256;2022-08-25T03:43:43;13.10;99.90
33881;DHT22;20172;47.530;10.256;2022-08-25T03:46:08;12.90;99.90
33881;DHT22;20172;47.530;10.256;2022-08-25T03:48:34;12.90;99.90
33881;DHT22;20172;47.530;10.256;2022-08-25T03:51:00;12.90;99.90
33881;DHT22;20172;47.530;10.256;2022-08-25T03:53:25;12.80;99.90
33881;DHT22;20172;47.530;10.256;2022-08-25T03:55:51;12.90;99.90
33881;DHT22;20172;47.530;10.256;2022-08-25T03:58:16;13.00;99.90
33881;DHT22;20172;47.530;10.256;2022-08-25T04:00:42;13.10;99.90
33881;DHT22;20172;47.530;10.256;2022-08-25T04:03:08;13.10;99.90
33881;DHT22;20172;47.530;10.256;2022-08-25T04:05:33;12.90;99.90
33881;DHT22;20172;47.530;10.256;2022-08-25T04:07:59;12.60;99.90
33881;DHT22;20172;47.530;10.256;2022-08-25T04:10:25;12.70;99.90
33881;DHT22;20172;47.530;10.256;2022-08-25T04:12:51;12.70;99.90
33881;DHT22;20172;47.530;10.256;2022-08-25T04:15:16;12.80;99.90
33881;DHT22;20172;47.530;10.256;2022-08-25T04:17:42;12.80;99.90
33881;DHT22;20172;47.530;10.256;2022-08-25T04:20:08;12.80;99.90
33881;DHT22;20172;47.530;10.256;2022-08-25T04:22:35;12.70;99.90
33881;DHT22;20172;47.530;10.256;2022-08-25T04:25:01;12.60;99.90
33881;DHT22;20172;47.530;10.256;2022-08-25T04:27:27;12.50;99.90
33881;DHT22;20172;47.530;10.256;2022-08-25T04:29:52;12.60;99.90
33881;DHT22;20172;47.530;10.256;2022-08-25T04:32:18;12.50;99.90
33881;DHT22;20172;47.530;10.256;2022-08-25T04:34:44;12.40;99.90
33881;DHT22;20172;47.530;10.256;2022-08-25T04:37:13;12.30;99.90
33881;DHT22;20172;47.530;10.256;2022-08-25T04:39:38;12.30;99.90
33881;DHT22;20172;47.530;10.256;2022-08-25T04:42:04;12.50;99.90
33881;DHT22;20172;47.530;10.256;2022-08-25T04:44:30;12.60;99.90
33881;DHT22;20172;47.530;10.256;2022-08-25T04:46:56;12.80;99.90
33881;DHT22;20172;47.530;10.256;2022-08-25T04:49:22;13.00;99.90
33881;DHT22;20172;47.530;10.256;2022-08-25T04:51:47;13.10;99.90
33881;DHT22;20172;47.530;10.256;2022-08-25T04:54:14;13.10;99.90
33881;DHT22;20172;47.530;10.256;2022-08-25T04:56:46;13.20;99.90
33881;DHT22;20172;47.530;10.256;2022-08-25T04:59:12;13.00;99.90
33881;DHT22;20172;47.530;10.256;2022-08-25T05:01:38;12.80;99.90
33881;DHT22;20172;47.530;10.256;2022-08-25T05:04:05;12.70;99.90
33881;DHT22;20172;47.530;10.256;2022-08-25T05:06:31;12.70;99.90
33881;DHT22;20172;47.530;10.256;2022-08-25T05:08:57;12.70;99.90
33881;DHT22;20172;47.530;10.256;2022-08-25T05:11:23;12.80;99.90
33881;DHT22;20172;47.530;10.256;2022-08-25T05:13:50;12.90;99.90
33881;DHT22;20172;47.530;10.256;2022-08-25T05:16:16;13.10;99.90
33881;DHT22;20172;47.530;10.256;2022-08-25T05:18:45;13.30;99.90
33881;DHT22;20172;47.530;10.256;2022-08-25T05:21:14;13.60;99.90
33881;DHT22;20172;47.530;10.256;2022-08-25T05:23:40;13.60;99.90
33881;DHT22;20172;47.530;10.256;2022-08-25T05:26:11;13.60;99.90
33881;DHT22;20172;47.530;10.256;2022-08-25T05:28:38;13.40;99.90
33881;DHT22;20172;47.530;10.256;2022-08-25T05:31:06;13.50;99.90
33881;DHT22;20172;47.530;10.256;2022-08-25T05:33:33;13.30;99.90
33881;DHT22;20172;47.530;10.256;2022-08-25T05:35:59;13.40;99.90
33881;DHT22;20172;47.530;10.256;2022-08-25T05:38:25;13.40;99.90
33881;DHT22;20172;47.530;10.256;2022-08-25T05:40:51;13.40;99.90
33881;DHT22;20172;47.530;10.256;2022-08-25T05:43:17;13.40;99.90
33881;DHT22;20172;47.530;10.256;2022-08-25T05:45:43;13.50;99.90
33881;DHT22;20172;47.530;10.256;2022-08-25T05:48:08;13.70;99.90
33881;DHT22;20172;47.530;10.256;2022-08-25T05:50:34;13.80;99.90
33881;DHT22;20172;47.530;10.256;2022-08-25T05:52:59;13.90;99.90
33881;DHT22;20172;47.530;10.256;2022-08-25T05:55:25;14.20;99.90
33881;DHT22;20172;47.530;10.256;2022-08-25T05:57:50;14.60;99.90
33881;DHT22;20172;47.530;10.256;2022-08-25T06:00:16;14.80;99.90
33881;DHT22;20172;47.530;10.256;2022-08-25T06:02:42;14.90;99.90
33881;DHT22;20172;47.530;10.256;2022-08-25T06:05:14;14.90;99.90
33881;DHT22;20172;47.530;10.256;2022-08-25T06:07:40;15.00;99.90
33881;DHT22;20172;47.530;10.256;2022-08-25T06:10:07;15.20;99.90
33881;DHT22;20172;47.530;10.256;2022-08-25T06:12:36;15.40;99.90
33881;DHT22;20172;47.530;10.256;2022-08-25T06:15:02;15.60;99.90
33881;DHT22;20172;47.530;10.256;2022-08-25T06:17:28;15.70;99.90
33881;DHT22;20172;47.530;10.256;2022-08-25T06:19:53;15.80;99.90
33881;DHT22;20172;47.530;10.256;2022-08-25T06:22:19;15.90;99.90
33881;DHT22;20172;47.530;10.256;2022-08-25T06:24:45;16.10;99.90
33881;DHT22;20172;47.530;10.256;2022-08-25T06:27:11;15.80;99.90
33881;DHT22;20172;47.530;10.256;2022-08-25T06:29:36;15.50;99.90
33881;DHT22;20172;47.530;10.256;2022-08-25T06:32:02;15.40;99.90
33881;DHT22;20172;47.530;10.256;2022-08-25T06:34:28;15.40;99.90
33881;DHT22;20172;47.530;10.256;2022-08-25T06:36:53;15.40;99.90
33881;DHT22;20172;47.530;10.256;2022-08-25T06:39:19;15.40;99.90
33881;DHT22;20172;47.530;10.256;2022-08-25T06:41:44;15.60;99.90
33881;DHT22;20172;47.530;10.256;2022-08-25T06:44:10;15.70;99.90
33881;DHT22;20172;47.530;10.256;2022-08-25T06:46:36;15.80;99.90
33881;DHT22;20172;47.530;10.256;2022-08-25T06:49:02;16.20;99.90
33881;DHT22;20172;47.530;10.256;2022-08-25T06:51:28;16.20;99.90
33881;DHT22;20172;47.530;10.256;2022-08-25T06:53:54;16.40;99.90
33881;DHT22;20172;47.530;10.256;2022-08-25T06:56:20;16.80;99.90
33881;DHT22;20172;47.530;10.256;2022-08-25T06:58:46;17.10;99.90
33881;DHT22;20172;47.530;10.256;2022-08-25T07:01:13;17.40;99.90
33881;DHT22;20172;47.530;10.256;2022-08-25T07:03:39;17.60;99.90
33881;DHT22;20172;47.530;10.256;2022-08-25T07:06:05;17.80;99.90
33881;DHT22;20172;47.530;10.256;2022-08-25T07:08:30;17.70;99.90
33881;DHT22;20172;47.530;10.256;2022-08-25T07:10:56;17.60;99.90
33881;DHT22;20172;47.530;10.256;2022-08-25T07:13:22;17.50;99.90
33881;DHT22;20172;47.530;10.256;2022-08-25T07:15:51;17.60;99.90
33881;DHT22;20172;47.530;10.256;2022-08-25T07:18:17;18.00;99.90
33881;DHT22;20172;47.530;10.256;2022-08-25T07:20:42;18.40;99.90
33881;DHT22;20172;47.530;10.256;2022-08-25T07:23:08;18.70;99.90
33881;DHT22;20172;47.530;10.256;2022-08-25T07:25:33;18.80;99.90
33881;DHT22;20172;47.530;10.256;2022-08-25T07:27:59;18.80;99.90
33881;DHT22;20172;47.530;10.256;2022-08-25T07:30:25;19.10;99.90
33881;DHT22;20172;47.530;10.256;2022-08-25T07:32:51;19.30;99.90
33881;DHT22;20172;47.530;10.256;2022-08-25T07:35:18;19.30;99.90
33881;DHT22;20172;47.530;10.256;2022-08-25T07:37:46;19.20;99.90
33881;DHT22;20172;47.530;10.256;2022-08-25T07:40:13;19.30;99.90
33881;DHT22;20172;47.530;10.256;2022-08-25T07:42:39;19.30;99.90
33881;DHT22;20172;47.530;10.256;2022-08-25T07:45:06;19.50;99.90
33881;DHT22;20172;47.530;10.256;2022-08-25T07:47:32;19.80;99.90
33881;DHT22;20172;47.530;10.256;2022-08-25T07:49:57;20.00;99.90
33881;DHT22;20172;47.530;10.256;2022-08-25T07:52:23;20.10;99.90
33881;DHT22;20172;47.530;10.256;2022-08-25T07:54:49;20.30;99.90
33881;DHT22;20172;47.530;10.256;2022-08-25T07:57:14;20.40;99.90
33881;DHT22;20172;47.530;10.256;2022-08-25T07:59:40;20.50;99.90
33881;DHT22;20172;47.530;10.256;2022-08-25T08:02:09;20.60;99.90
33881;DHT22;20172;47.530;10.256;2022-08-25T08:04:38;20.70;99.90
33881;DHT22;20172;47.530;10.256;2022-08-25T08:07:04;20.80;99.90
33881;DHT22;20172;47.530;10.256;2022-08-25T08:09:34;20.90;99.90
33881;DHT22;20172;47.530;10.256;2022-08-25T08:12:00;21.00;99.90
33881;DHT22;20172;47.530;10.256;2022-08-25T08:14:26;21.00;99.90
33881;DHT22;20172;47.530;10.256;2022-08-25T08:16:51;21.10;99.90
33881;DHT22;20172;47.530;10.256;2022-08-25T08:19:18;21.20;99.90
33881;DHT22;20172;47.530;10.256;2022-08-25T08:21:43;21.30;99.90
33881;DHT22;20172;47.530;10.256;2022-08-25T08:24:10;21.40;99.90
33881;DHT22;20172;47.530;10.256;2022-08-25T08:26:36;21.50;99.90
33881;DHT22;20172;47.530;10.256;2022-08-25T08:29:02;21.50;99.90
33881;DHT22;20172;47.530;10.256;2022-08-25T08:31:28;21.60;99.90
33881;DHT22;20172;47.530;10.256;2022-08-25T08:33:54;21.60;99.90
33881;DHT22;20172;47.530;10.256;2022-08-25T08:36:20;21.70;99.90
33881;DHT22;20172;47.530;10.256;2022-08-25T08:38:46;21.80;99.90
33881;DHT22;20172;47.530;10.256;2022-08-25T08:46:48;22.20;99.90
33881;DHT22;20172;47.530;10.256;2022-08-25T08:49:21;22.20;99.90
33881;DHT22;20172;47.530;10.256;2022-08-25T08:51:54;22.30;99.90
33881;DHT22;20172;47.530;10.256;2022-08-25T08:54:22;22.50;99.90
33881;DHT22;20172;47.530;10.256;2022-08-25T08:56:50;22.60;99.90
33881;DHT22;20172;47.530;10.256;2022-08-25T08:59:18;22.80;99.90
33881;DHT22;20172;47.530;10.256;2022-08-25T09:01:49;22.90;99.90
33881;DHT22;20172;47.530;10.256;2022-08-25T09:06:43;23.10;99.90
33881;DHT22;20172;47.530;10.256;2022-08-25T09:09:10;23.20;99.90
33881;DHT22;20172;47.530;10.256;2022-08-25T09:11:56;23.40;99.90
33881;DHT22;20172;47.530;10.256;2022-08-25T09:17:01;23.70;99.90
33881;DHT22;20172;47.530;10.256;2022-08-25T09:27:21;24.20;99.90
33881;DHT22;20172;47.530;10.256;2022-08-25T09:32:13;24.50;99.90
33881;DHT22;20172;47.530;10.256;2022-08-25T09:34:39;24.50;99.90
33881;DHT22;20172;47.530;10.256;2022-08-25T09:37:05;24.70;99.90
33881;DHT22;20172;47.530;10.256;2022-08-25T09:39:31;24.80;99.90
33881;DHT22;20172;47.530;10.256;2022-08-25T09:41:57;24.90;99.90
33881;DHT22;20172;47.530;10.256;2022-08-25T09:44:38;25.00;99.90
33881;DHT22;20172;47.530;10.256;2022-08-25T09:52:15;25.40;99.90
33881;DHT22;20172;47.530;10.256;2022-08-25T09:54:40;25.50;99.90
33881;DHT22;20172;47.530;10.256;2022-08-25T09:57:06;25.70;99.90
33881;DHT22;20172;47.530;10.256;2022-08-25T09:59:33;25.80;99.90
33881;DHT22;20172;47.530;10.256;2022-08-25T10:02:01;25.90;99.90
33881;DHT22;20172;47.530;10.256;2022-08-25T10:04:28;26.00;99.90
33881;DHT22;20172;47.530;10.256;2022-08-25T10:06:55;26.10;99.90
33881;DHT22;20172;47.530;10.256;2022-08-25T10:09:26;26.10;99.90
33881;DHT22;20172;47.530;10.256;2022-08-25T10:11:53;26.20;99.90
33881;DHT22;20172;47.530;10.256;2022-08-25T10:16:52;26.40;99.90
33881;DHT22;20172;47.530;10.256;2022-08-25T10:19:35;26.40;99.90
33881;DHT22;20172;47.530;10.256;2022-08-25T10:24:59;26.60;99.90
33881;DHT22;20172;47.530;10.256;2022-08-25T10:30:06;26.80;99.90
33881;DHT22;20172;47.530;10.256;2022-08-25T10:35:03;27.10;99.90
33881;DHT22;20172;47.530;10.256;2022-08-25T10:55:17;28.00;99.90
33881;DHT22;20172;47.530;10.256;2022-08-25T11:00:33;28.40;99.90
33881;DHT22;20172;47.530;10.256;2022-08-25T11:08:09;28.90;99.90
33881;DHT22;20172;47.530;10.256;2022-08-25T11:10:38;29.00;99.90
33881;DHT22;20172;47.530;10.256;2022-08-25T11:13:06;29.10;99.00
33881;DHT22;20172;47.530;10.256;2022-08-25T11:15:38;29.10;99.90
33881;DHT22;20172;47.530;10.256;2022-08-25T11:18:09;29.20;99.90
33881;DHT22;20172;47.530;10.256;2022-08-25T11:26:13;29.70;97.60
33881;DHT22;20172;47.530;10.256;2022-08-25T11:28:53;29.90;97.00
33881;DHT22;20172;47.530;10.256;2022-08-25T11:31:21;30.10;97.90
33881;DHT22;20172;47.530;10.256;2022-08-25T11:33:50;30.10;96.50
33881;DHT22;20172;47.530;10.256;2022-08-25T11:36:33;30.40;96.50
33881;DHT22;20172;47.530;10.256;2022-08-25T11:39:06;30.50;95.20
33881;DHT22;20172;47.530;10.256;2022-08-25T11:51:55;31.20;94.30
33881;DHT22;20172;47.530;10.256;2022-08-25T11:54:23;31.20;93.50
33881;DHT22;20172;47.530;10.256;2022-08-25T11:56:52;31.40;94.70
33881;DHT22;20172;47.530;10.256;2022-08-25T12:02:03;31.80;91.10
33881;DHT22;20172;47.530;10.256;2022-08-25T12:04:40;31.90;91.50
33881;DHT22;20172;47.530;10.256;2022-08-25T12:12:26;32.20;89.30
33881;DHT22;20172;47.530;10.256;2022-08-25T12:14:50;32.20;90.70
33881;DHT22;20172;47.530;10.256;2022-08-25T12:17:17;32.30;90.40
33881;DHT22;20172;47.530;10.256;2022-08-25T12:27:02;32.30;82.90
33881;DHT22;20172;47.530;10.256;2022-08-25T12:29:41;32.30;82.00
33881;DHT22;20172;47.530;10.256;2022-08-25T12:37:04;32.10;80.60
33881;DHT22;20172;47.530;10.256;2022-08-25T12:39:36;32.00;81.00
33881;DHT22;20172;47.530;10.256;2022-08-25T12:42:07;32.00;80.00
33881;DHT22;20172;47.530;10.256;2022-08-25T12:44:43;32.10;79.50
33881;DHT22;20172;47.530;10.256;2022-08-25T12:47:23;32.00;78.50
33881;DHT22;20172;47.530;10.256;2022-08-25T12:50:23;32.00;78.90
33881;DHT22;20172;47.530;10.256;2022-08-25T12:52:39;31.90;78.60
33881;DHT22;20172;47.530;10.256;2022-08-25T12:55:05;31.80;80.10
33881;DHT22;20172;47.530;10.256;2022-08-25T13:00:12;32.10;80.60
33881;DHT22;20172;47.530;10.256;2022-08-25T13:10:45;32.50;76.30
33881;DHT22;20172;47.530;10.256;2022-08-25T13:13:15;33.10;73.80
33881;DHT22;20172;47.530;10.256;2022-08-25T13:16:33;35.10;70.30
33881;DHT22;20172;47.530;10.256;2022-08-25T13:18:40;38.20;65.90
33881;DHT22;20172;47.530;10.256;2022-08-25T13:23:35;41.50;52.40
33881;DHT22;20172;47.530;10.256;2022-08-25T13:26:02;42.50;49.80
33881;DHT22;20172;47.530;10.256;2022-08-25T13:28:29;43.10;48.70
33881;DHT22;20172;47.530;10.256;2022-08-25T13:30:56;44.20;46.40
33881;DHT22;20172;47.530;10.256;2022-08-25T13:33:22;45.30;43.80
33881;DHT22;20172;47.530;10.256;2022-08-25T13:35:48;46.30;42.90
33881;DHT22;20172;47.530;10.256;2022-08-25T13:38:17;47.40;42.00
33881;DHT22;20172;47.530;10.256;2022-08-25T13:40:46;48.40;39.90
33881;DHT22;20172;47.530;10.256;2022-08-25T13:43:12;48.90;38.10
33881;DHT22;20172;47.530;10.256;2022-08-25T13:45:42;49.20;38.30
33881;DHT22;20172;47.530;10.256;2022-08-25T13:48:09;49.70;36.00
33881;DHT22;20172;47.530;10.256;2022-08-25T13:50:36;49.40;36.00
33881;DHT22;20172;47.530;10.256;2022-08-25T13:53:12;50.00;34.30
33881;DHT22;20172;47.530;10.256;2022-08-25T13:55:48;50.20;34.60
33881;DHT22;20172;47.530;10.256;2022-08-25T13:58:16;50.40;34.30
33881;DHT22;20172;47.530;10.256;2022-08-25T14:00:44;50.30;34.20
33881;DHT22;20172;47.530;10.256;2022-08-25T14:03:27;50.40;33.70
33881;DHT22;20172;47.530;10.256;2022-08-25T14:06:03;49.90;34.20
33881;DHT22;20172;47.530;10.256;2022-08-25T14:08:30;49.90;34.10
33881;DHT22;20172;47.530;10.256;2022-08-25T14:11:05;50.40;33.50
33881;DHT22;20172;47.530;10.256;2022-08-25T14:13:33;51.20;33.00
33881;DHT22;20172;47.530;10.256;2022-08-25T14:16:34;51.30;33.20
33881;DHT22;20172;47.530;10.256;2022-08-25T14:18:52;51.20;32.60
33881;DHT22;20172;47.530;10.256;2022-08-25T14:21:19;51.00;32.50
33881;DHT22;20172;47.530;10.256;2022-08-25T14:23:49;51.10;32.30
33881;DHT22;20172;47.530;10.256;2022-08-25T14:26:16;51.00;32.40
33881;DHT22;20172;47.530;10.256;2022-08-25T14:28:45;51.20;33.30
33881;DHT22;20172;47.530;10.256;2022-08-25T14:31:15;51.10;31.60
33881;DHT22;20172;47.530;10.256;2022-08-25T14:33:55;51.20;31.70
33881;DHT22;20172;47.530;10.256;2022-08-25T14:36:22;50.90;32.20
33881;DHT22;20172;47.530;10.256;2022-08-25T14:38:48;50.70;30.80
33881;DHT22;20172;47.530;10.256;2022-08-25T14:41:13;49.90;32.00
33881;DHT22;20172;47.530;10.256;2022-08-25T14:43:40;50.20;32.40
33881;DHT22;20172;47.530;10.256;2022-08-25T14:46:27;50.30;32.30
33881;DHT22;20172;47.530;10.256;2022-08-25T14:48:52;50.10;31.60
33881;DHT22;20172;47.530;10.256;2022-08-25T14:51:19;48.90;32.50
33881;DHT22;20172;47.530;10.256;2022-08-25T14:53:45;48.50;32.90
33881;DHT22;20172;47.530;10.256;2022-08-25T14:56:13;48.50;33.20
33881;DHT22;20172;47.530;10.256;2022-08-25T14:58:39;48.10;33.10
33881;DHT22;20172;47.530;10.256;2022-08-25T15:01:08;48.20;32.80
33881;DHT22;20172;47.530;10.256;2022-08-25T15:03:36;48.10;33.30
33881;DHT22;20172;47.530;10.256;2022-08-25T15:06:03;48.20;32.60
33881;DHT22;20172;47.530;10.256;2022-08-25T15:08:29;46.50;35.10
33881;DHT22;20172;47.530;10.256;2022-08-25T15:11:13;44.00;36.80
33881;DHT22;20172;47.530;10.256;2022-08-25T15:13:39;41.30;40.10
33881;DHT22;20172;47.530;10.256;2022-08-25T15:16:05;39.30;42.10
33881;DHT22;20172;47.530;10.256;2022-08-25T15:18:31;37.80;41.90
33881;DHT22;20172;47.530;10.256;2022-08-25T15:20:56;36.50;44.90
33881;DHT22;20172;47.530;10.256;2022-08-25T15:23:22;35.70;45.50
33881;DHT22;20172;47.530;10.256;2022-08-25T15:25:48;35.00;45.00
33881;DHT22;20172;47.530;10.256;2022-08-25T15:28:14;34.50;46.80
33881;DHT22;20172;47.530;10.256;2022-08-25T15:30:40;34.00;48.50
33881;DHT22;20172;47.530;10.256;2022-08-25T15:33:05;33.50;49.60
33881;DHT22;20172;47.530;10.256;2022-08-25T15:35:32;33.00;49.20
33881;DHT22;20172;47.530;10.256;2022-08-25T15:37:58;32.70;48.90
33881;DHT22;20172;47.530;10.256;2022-08-25T15:40:24;32.40;50.10
33881;DHT22;20172;47.530;10.256;2022-08-25T15:42:49;32.40;49.30
33881;DHT22;20172;47.530;10.256;2022-08-25T15:45:15;31.80;52.20
33881;DHT22;20172;47.530;10.256;2022-08-25T15:47:40;31.60;52.20
33881;DHT22;20172;47.530;10.256;2022-08-25T15:50:11;31.30;53.40
33881;DHT22;20172;47.530;10.256;2022-08-25T15:52:38;31.00;53.80
33881;DHT22;20172;47.530;10.256;2022-08-25T15:55:04;30.70;54.00
33881;DHT22;20172;47.530;10.256;2022-08-25T15:57:30;30.50;53.50
33881;DHT22;20172;47.530;10.256;2022-08-25T15:59:55;30.20;54.00
33881;DHT22;20172;47.530;10.256;2022-08-25T16:02:21;30.10;55.70
33881;DHT22;20172;47.530;10.256;2022-08-25T16:04:47;29.90;57.10
33881;DHT22;20172;47.530;10.256;2022-08-25T16:07:12;29.80;57.50
33881;DHT22;20172;47.530;10.256;2022-08-25T16:09:39;29.70;57.90
33881;DHT22;20172;47.530;10.256;2022-08-25T16:12:08;29.40;58.00
33881;DHT22;20172;47.530;10.256;2022-08-25T16:14:33;29.20;57.60
33881;DHT22;20172;47.530;10.256;2022-08-25T16:16:59;29.10;59.30
33881;DHT22;20172;47.530;10.256;2022-08-25T16:19:25;28.90;58.20
33881;DHT22;20172;47.530;10.256;2022-08-25T16:21:51;28.80;57.50
33881;DHT22;20172;47.530;10.256;2022-08-25T16:24:16;28.70;58.20
33881;DHT22;20172;47.530;10.256;2022-08-25T16:26:42;28.60;58.70
33881;DHT22;20172;47.530;10.256;2022-08-25T16:29:10;28.40;59.30
33881;DHT22;20172;47.530;10.256;2022-08-25T16:31:38;28.30;59.20
33881;DHT22;20172;47.530;10.256;2022-08-25T16:34:04;28.30;58.80
33881;DHT22;20172;47.530;10.256;2022-08-25T16:36:29;28.20;62.00
33881;DHT22;20172;47.530;10.256;2022-08-25T16:38:55;28.20;62.60
33881;DHT22;20172;47.530;10.256;2022-08-25T16:41:23;28.00;64.00
33881;DHT22;20172;47.530;10.256;2022-08-25T16:43:49;27.80;64.10
33881;DHT22;20172;47.530;10.256;2022-08-25T16:46:16;27.60;64.60
33881;DHT22;20172;47.530;10.256;2022-08-25T16:48:42;27.40;66.00
33881;DHT22;20172;47.530;10.256;2022-08-25T16:51:13;27.20;67.10
33881;DHT22;20172;47.530;10.256;2022-08-25T16:53:39;27.00;67.30
33881;DHT22;20172;47.530;10.256;2022-08-25T16:56:23;26.80;65.50
33881;DHT22;20172;47.530;10.256;2022-08-25T16:58:53;26.40;66.60
33881;DHT22;20172;47.530;10.256;2022-08-25T17:01:19;26.30;68.20
33881;DHT22;20172;47.530;10.256;2022-08-25T17:03:46;26.10;68.30
33881;DHT22;20172;47.530;10.256;2022-08-25T17:06:11;26.00;70.30
33881;DHT22;20172;47.530;10.256;2022-08-25T17:08:38;25.80;69.80
33881;DHT22;20172;47.530;10.256;2022-08-25T17:11:08;25.70;69.20